Time;durP1;ratioP1;P1;durP2;ratioP2;P2;SDS_P1;SDS_P2;PMS_P1;PMS_P2;Temp;Humidity;BMP_temperature;BMP_pressure;BME280_temperature;BME280_humidity;BME280_pressure;Samples;Min_cycle;Max_cycle;Signal;HPM_P1;HPM_P2
2021/09/22 00:01:09;;;;;;;7.30;6.57;;;16.40;51.60;;;;;;5071234;28;20020;-64
2021/09/22 00:03:35;;;;;;;8.90;6.43;;;16.40;51.50;;;;;;5053069;28;20521;-65
2021/09/22 00:06:01;;;;;;;17.38;6.70;;;16.40;51.60;;;;;;5071434;28;20524;-65
2021/09/22 00:08:26;;;;;;;10.65;6.93;;;16.30;51.60;;;;;;5071433;28;20020;-64
2021/09/22 00:10:52;;;;;;;9.95;6.93;;;16.40;51.70;;;;;;5070776;28;20420;-63
2021/09/22 00:13:18;;;;;;;8.45;6.80;;;16.40;51.70;;;;;;5071538;28;20488;-63
2021/09/22 00:15:43;;;;;;;9.63;6.93;;;16.40;51.60;;;;;;5052662;28;20456;-63
2021/09/22 00:18:09;;;;;;;9.20;7.15;;;16.50;51.60;;;;;;5071109;28;20111;-64
2021/09/22 00:20:35;;;;;;;11.18;6.88;;;16.50;51.50;;;;;;5052852;28;20442;-63
2021/09/22 00:23:01;;;;;;;8.75;6.65;;;16.50;51.50;;;;;;5070624;28;20400;-64
2021/09/22 00:25:29;;;;;;;9.35;7.03;;;16.50;51.50;;;;;;5070756;28;20462;-64
2021/09/22 00:27:55;;;;;;;8.98;6.63;;;16.50;51.70;;;;;;5070532;28;20114;-64
2021/09/22 00:30:21;;;;;;;10.95;6.85;;;16.50;51.80;;;;;;5070726;28;20024;-64
2021/09/22 00:32:47;;;;;;;8.07;6.47;;;16.50;52.00;;;;;;5070770;28;20056;-63
2021/09/22 00:35:13;;;;;;;10.27;6.55;;;16.50;52.20;;;;;;5071768;28;20039;-63
2021/09/22 00:37:39;;;;;;;9.23;7.07;;;16.50;52.60;;;;;;5070290;28;20103;-63
2021/09/22 00:40:06;;;;;;;9.95;7.20;;;16.40;52.40;;;;;;5053023;28;20025;-63
2021/09/22 00:42:32;;;;;;;10.15;7.40;;;16.40;52.60;;;;;;5052138;28;20093;-63
2021/09/22 00:45:02;;;;;;;11.52;6.57;;;16.40;52.60;;;;;;5053028;28;20483;-62
2021/09/22 00:47:29;;;;;;;9.48;7.13;;;16.40;52.90;;;;;;5070838;28;20027;-63
2021/09/22 00:49:55;;;;;;;10.95;6.90;;;16.40;52.60;;;;;;5070116;28;20031;-64
2021/09/22 00:52:22;;;;;;;11.00;7.22;;;16.40;52.70;;;;;;5071159;28;20032;-66
2021/09/22 00:54:48;;;;;;;8.93;6.85;;;16.40;52.80;;;;;;5070117;28;20031;-64
2021/09/22 00:57:16;;;;;;;9.30;7.18;;;16.30;53.30;;;;;;5052967;28;20060;-64
2021/09/22 00:59:42;;;;;;;8.43;7.28;;;16.30;52.80;;;;;;5052379;28;20025;-64
2021/09/22 01:02:08;;;;;;;8.88;7.30;;;16.30;52.50;;;;;;5072655;28;20384;-65
2021/09/22 01:04:35;;;;;;;9.80;7.28;;;16.30;52.40;;;;;;5056218;28;20024;-65
2021/09/22 01:07:03;;;;;;;11.25;7.68;;;16.30;52.40;;;;;;5056901;28;20099;-64
2021/09/22 01:09:28;;;;;;;12.00;7.05;;;16.30;52.40;;;;;;5075192;28;20048;-63
2021/09/22 01:11:54;;;;;;;9.18;7.53;;;16.30;52.00;;;;;;5056434;28;20071;-63
2021/09/22 01:14:24;;;;;;;8.70;7.15;;;16.30;51.90;;;;;;5074890;28;20032;-64
2021/09/22 01:16:51;;;;;;;10.65;6.82;;;16.30;51.80;;;;;;5074184;28;20075;-63
2021/09/22 01:19:17;;;;;;;8.60;6.85;;;16.30;51.90;;;;;;5074561;28;20032;-67
2021/09/22 01:21:44;;;;;;;10.05;7.28;;;16.30;52.10;;;;;;5056189;28;20435;-65
2021/09/22 01:24:10;;;;;;;8.50;6.93;;;16.30;51.70;;;;;;5039532;28;20056;-64
2021/09/22 01:26:37;;;;;;;11.35;7.10;;;16.30;51.90;;;;;;5072966;28;20095;-65
2021/09/22 01:29:03;;;;;;;8.35;6.72;;;16.30;51.90;;;;;;5074363;28;20157;-64
2021/09/22 01:31:28;;;;;;;11.98;7.47;;;16.30;51.70;;;;;;5056380;28;20021;-63
2021/09/22 01:33:59;;;;;;;8.48;6.80;;;16.20;51.90;;;;;;5073329;28;20378;-65
2021/09/22 01:36:25;;;;;;;9.43;7.13;;;16.20;52.00;;;;;;5073602;28;20024;-63
2021/09/22 01:38:50;;;;;;;9.32;7.30;;;16.20;52.30;;;;;;5038631;28;20032;-63
2021/09/22 01:41:16;;;;;;;9.93;6.95;;;16.10;52.20;;;;;;5055484;28;20027;-63
2021/09/22 01:43:43;;;;;;;8.52;7.30;;;16.10;52.40;;;;;;5073146;28;20036;-63
2021/09/22 01:46:09;;;;;;;10.63;7.18;;;16.10;52.20;;;;;;5073950;28;20177;-63
2021/09/22 01:48:35;;;;;;;12.02;8.20;;;16.10;52.20;;;;;;5073070;28;20051;-63
2021/09/22 01:51:03;;;;;;;9.10;7.63;;;16.10;52.20;;;;;;5073191;28;20445;-64
2021/09/22 01:53:29;;;;;;;9.25;7.90;;;16.10;52.50;;;;;;5073145;28;20040;-63
2021/09/22 01:55:57;;;;;;;10.95;7.18;;;16.10;52.40;;;;;;5073245;28;20028;-63
2021/09/22 01:58:25;;;;;;;12.25;7.75;;;16.10;52.30;;;;;;5073927;28;20023;-63
2021/09/22 02:00:53;;;;;;;11.15;7.80;;;16.00;52.60;;;;;;5072830;28;20020;-64
2021/09/22 02:03:19;;;;;;;9.52;7.57;;;16.00;53.20;;;;;;5072955;28;20024;-64
2021/09/22 02:05:45;;;;;;;12.05;7.63;;;15.90;53.80;;;;;;5054634;28;20365;-63
2021/09/22 02:08:12;;;;;;;14.25;7.95;;;15.90;53.30;;;;;;5055175;28;20135;-63
2021/09/22 02:10:38;;;;;;;8.55;7.35;;;15.90;53.60;;;;;;5054756;28;20017;-63
2021/09/22 02:13:05;;;;;;;9.70;7.35;;;15.80;53.50;;;;;;5053833;28;20184;-63
2021/09/22 02:15:31;;;;;;;10.60;7.72;;;15.80;53.60;;;;;;5072626;28;20514;-62
2021/09/22 02:17:57;;;;;;;10.05;8.52;;;15.80;53.40;;;;;;5073026;28;20036;-63
2021/09/22 02:20:23;;;;;;;10.98;7.75;;;15.80;53.50;;;;;;5055194;28;20025;-62
2021/09/22 02:22:49;;;;;;;12.68;7.70;;;15.90;53.30;;;;;;5072360;28;20025;-64
2021/09/22 02:25:15;;;;;;;9.55;7.65;;;15.90;53.20;;;;;;5054936;28;20479;-63
2021/09/22 02:27:41;;;;;;;10.95;8.13;;;15.90;53.00;;;;;;5071922;28;20045;-65
2021/09/22 02:30:09;;;;;;;9.00;7.30;;;16.00;52.90;;;;;;5072668;28;20138;-63
2021/09/22 02:32:36;;;;;;;9.18;7.82;;;16.00;52.60;;;;;;5054205;28;20326;-64
2021/09/22 02:35:01;;;;;;;11.05;7.53;;;16.10;52.60;;;;;;5072884;28;20021;-63
2021/09/22 02:37:27;;;;;;;9.20;7.50;;;16.10;52.40;;;;;;5072749;28;20089;-63
2021/09/22 02:39:55;;;;;;;8.77;6.88;;;16.10;52.20;;;;;;5072323;28;20028;-63
2021/09/22 02:42:22;;;;;;;10.30;7.65;;;16.10;52.10;;;;;;5072578;28;20074;-62
2021/09/22 02:44:48;;;;;;;8.85;7.18;;;16.10;52.00;;;;;;5072565;28;20036;-62
2021/09/22 02:47:14;;;;;;;11.32;7.10;;;16.10;52.40;;;;;;5054423;28;20485;-63
2021/09/22 02:49:40;;;;;;;11.13;7.60;;;16.10;52.10;;;;;;5054114;28;20025;-63
2021/09/22 02:52:06;;;;;;;10.45;7.57;;;16.10;52.10;;;;;;5054404;28;20093;-63
2021/09/22 02:54:32;;;;;;;8.00;7.18;;;16.10;52.20;;;;;;5071667;28;20441;-63
2021/09/22 02:56:58;;;;;;;9.88;7.22;;;16.10;52.10;;;;;;5072104;28;20035;-63
2021/09/22 02:59:24;;;;;;;9.43;7.88;;;16.10;52.60;;;;;;5072182;28;20115;-66
2021/09/22 03:01:50;;;;;;;10.30;8.50;;;16.10;52.70;;;;;;5071333;28;20097;-63
2021/09/22 03:04:16;;;;;;;10.05;8.50;;;16.10;52.90;;;;;;5071705;28;20054;-63
2021/09/22 03:06:42;;;;;;;9.95;7.78;;;16.10;52.90;;;;;;5053246;28;20485;-63
2021/09/22 03:09:08;;;;;;;12.63;8.80;;;16.20;53.00;;;;;;5071612;28;20036;-63
2021/09/22 03:11:34;;;;;;;9.90;7.57;;;16.20;53.20;;;;;;5070797;28;20036;-63
2021/09/22 03:13:59;;;;;;;11.80;8.75;;;16.20;53.70;;;;;;5071297;28;20033;-64
2021/09/22 03:16:25;;;;;;;14.98;9.38;;;16.10;54.30;;;;;;5071142;28;20052;-67
2021/09/22 03:18:51;;;;;;;9.60;8.48;;;16.10;54.10;;;;;;5053932;28;20488;-64
2021/09/22 03:21:17;;;;;;;11.30;8.43;;;16.10;54.50;;;;;;5053502;28;20435;-62
2021/09/22 03:23:43;;;;;;;10.07;8.13;;;16.00;54.70;;;;;;5052291;28;20174;-62
2021/09/22 03:26:08;;;;;;;12.85;9.30;;;16.00;54.90;;;;;;5052569;28;20035;-62
2021/09/22 03:28:34;;;;;;;10.38;8.35;;;16.00;54.70;;;;;;5053102;28;20115;-63
2021/09/22 03:31:00;;;;;;;11.05;8.57;;;16.00;55.00;;;;;;5071438;28;20392;-63
2021/09/22 03:33:26;;;;;;;12.55;9.48;;;15.90;55.40;;;;;;5053130;28;20134;-66
2021/09/22 03:35:52;;;;;;;15.65;9.32;;;15.90;55.10;;;;;;5071152;28;20048;-63
2021/09/22 03:38:18;;;;;;;14.30;10.18;;;15.90;55.70;;;;;;5053329;28;20021;-63
2021/09/22 03:40:44;;;;;;;11.15;9.13;;;15.90;55.30;;;;;;5052560;28;20529;-63
2021/09/22 03:43:09;;;;;;;10.30;9.20;;;15.90;55.30;;;;;;5052858;28;20028;-63
2021/09/22 03:45:35;;;;;;;12.40;8.77;;;15.90;55.30;;;;;;5070526;28;20461;-63
2021/09/22 03:48:01;;;;;;;13.88;9.32;;;15.90;55.50;;;;;;5071187;28;20040;-64
2021/09/22 03:50:27;;;;;;;11.52;8.88;;;15.90;55.40;;;;;;5052582;28;20029;-64
2021/09/22 03:52:53;;;;;;;12.68;9.73;;;15.90;55.70;;;;;;5071094;28;20024;-63
2021/09/22 03:55:18;;;;;;;12.38;9.27;;;15.90;55.50;;;;;;5053218;28;20029;-63
2021/09/22 03:57:44;;;;;;;13.95;10.25;;;15.90;55.80;;;;;;5052957;28;20113;-63
2021/09/22 04:00:10;;;;;;;12.38;9.63;;;15.90;55.60;;;;;;5070998;28;20469;-63
2021/09/22 04:02:36;;;;;;;17.52;10.55;;;15.90;56.40;;;;;;5070281;28;20029;-63
2021/09/22 04:05:02;;;;;;;11.95;9.88;;;15.90;56.10;;;;;;5070866;28;20116;-64
2021/09/22 04:07:27;;;;;;;12.80;9.95;;;15.90;56.10;;;;;;5052197;28;20024;-63
2021/09/22 04:09:53;;;;;;;14.45;11.38;;;15.90;56.50;;;;;;5070789;28;20089;-63
2021/09/22 04:12:19;;;;;;;11.93;9.65;;;15.90;57.00;;;;;;5070712;28;20528;-64
2021/09/22 04:14:44;;;;;;;12.50;10.65;;;15.90;57.70;;;;;;5070121;28;20021;-64
2021/09/22 04:17:10;;;;;;;12.52;11.15;;;15.80;57.80;;;;;;5070759;28;20067;-63
2021/09/22 04:19:36;;;;;;;15.73;11.27;;;15.80;58.00;;;;;;5070433;28;20056;-65
2021/09/22 04:22:02;;;;;;;15.68;11.30;;;15.80;58.10;;;;;;5070558;28;20515;-63
2021/09/22 04:24:27;;;;;;;13.35;11.45;;;15.80;58.40;;;;;;5070547;28;20112;-64
2021/09/22 04:26:53;;;;;;;13.23;11.60;;;15.80;58.80;;;;;;5060618;28;20444;-63
2021/09/22 04:29:19;;;;;;;15.48;11.77;;;15.80;59.20;;;;;;5091356;28;20032;-64
2021/09/22 04:31:44;;;;;;;12.48;11.05;;;15.70;59.50;;;;;;5072257;28;20438;-63
2021/09/22 04:34:10;;;;;;;17.20;12.60;;;15.70;59.90;;;;;;5090775;28;20028;-64
2021/09/22 04:36:36;;;;;;;15.15;12.13;;;15.70;60.00;;;;;;5089785;28;20438;-64
2021/09/22 04:39:05;;;;;;;23.88;13.57;;;15.70;60.20;;;;;;5072628;28;20028;-63
2021/09/22 04:41:30;;;;;;;14.23;12.52;;;15.60;60.40;;;;;;5090000;28;20084;-64
2021/09/22 04:43:56;;;;;;;16.25;14.20;;;15.60;60.80;;;;;;5091021;28;20032;-65
2021/09/22 04:46:22;;;;;;;18.33;13.18;;;15.60;61.30;;;;;;5090644;28;20020;-64
2021/09/22 04:48:48;;;;;;;19.25;13.75;;;15.60;61.90;;;;;;5090035;28;20024;-63
2021/09/22 04:51:13;;;;;;;15.05;13.45;;;15.50;62.10;;;;;;5091212;28;20111;-65
2021/09/22 04:53:39;;;;;;;18.58;13.45;;;15.50;62.10;;;;;;5089988;28;20110;-62
2021/09/22 04:56:05;;;;;;;15.32;13.68;;;15.50;62.30;;;;;;5072472;28;20459;-64
2021/09/22 04:58:31;;;;;;;16.05;14.35;;;15.40;63.20;;;;;;5090333;28;20020;-63
2021/09/22 05:01:01;;;;;;;17.92;14.45;;;15.50;62.90;;;;;;5072204;28;20032;-62
2021/09/22 05:03:27;;;;;;;17.40;14.98;;;15.40;63.20;;;;;;5090167;28;20024;-65
2021/09/22 05:05:53;;;;;;;18.40;14.75;;;15.40;63.70;;;;;;5090541;28;20140;-63
2021/09/22 05:08:19;;;;;;;16.33;14.32;;;15.40;63.80;;;;;;5090693;28;20020;-64
2021/09/22 05:10:44;;;;;;;16.08;14.10;;;15.40;64.00;;;;;;5090128;28;20360;-65
2021/09/22 05:13:10;;;;;;;23.67;15.82;;;15.40;64.30;;;;;;5072400;28;20035;-62
2021/09/22 05:15:36;;;;;;;16.73;14.93;;;15.40;64.20;;;;;;5089581;28;20536;-63
2021/09/22 05:18:02;;;;;;;20.27;15.10;;;15.40;64.60;;;;;;5090324;28;20151;-64
2021/09/22 05:20:27;;;;;;;19.00;16.05;;;15.40;64.80;;;;;;5071798;28;20085;-63
2021/09/22 05:22:53;;;;;;;21.23;15.80;;;15.40;65.00;;;;;;5090267;28;20060;-63
2021/09/22 05:25:19;;;;;;;19.05;15.40;;;15.40;65.50;;;;;;5090286;28;20483;-62
2021/09/22 05:27:46;;;;;;;17.83;14.85;;;15.40;65.80;;;;;;5071182;28;20372;-64
2021/09/22 05:30:12;;;;;;;18.95;16.92;;;15.40;65.80;;;;;;5071896;28;20109;-64
2021/09/22 05:32:38;;;;;;;21.67;15.27;;;15.30;66.10;;;;;;5071274;28;20032;-65
2021/09/22 05:35:05;;;;;;;23.35;17.05;;;15.30;66.30;;;;;;5090737;28;20097;-64
2021/09/22 05:37:31;;;;;;;22.50;18.13;;;15.40;66.40;;;;;;5071805;28;20049;-64
2021/09/22 05:39:59;;;;;;;21.55;15.45;;;15.40;66.40;;;;;;5072080;28;20146;-64
2021/09/22 05:42:26;;;;;;;21.58;16.60;;;15.30;66.60;;;;;;5090100;28;20032;-63
2021/09/22 05:44:53;;;;;;;20.42;15.88;;;15.30;67.10;;;;;;5086084;28;20040;-64
2021/09/22 05:47:19;;;;;;;21.77;17.75;;;15.30;67.30;;;;;;5071950;28;20055;-62
2021/09/22 05:49:45;;;;;;;23.27;17.95;;;15.30;67.20;;;;;;5073555;28;20544;-62
2021/09/22 05:52:11;;;;;;;20.77;18.25;;;15.30;67.30;;;;;;5092568;28;20089;-58
2021/09/22 05:54:37;;;;;;;25.67;16.75;;;15.30;67.30;;;;;;5074443;28;20021;-65
2021/09/22 05:57:02;;;;;;;24.27;17.73;;;15.30;67.50;;;;;;5075390;28;20506;-68
2021/09/22 05:59:30;;;;;;;22.95;16.35;;;15.30;67.40;;;;;;5091238;28;20051;-66
2021/09/22 06:01:56;;;;;;;20.67;16.55;;;15.30;67.70;;;;;;5091562;28;20027;-66
2021/09/22 06:04:22;;;;;;;20.95;16.77;;;15.30;67.30;;;;;;5074769;28;20173;-65
2021/09/22 06:06:48;;;;;;;33.05;16.63;;;15.40;67.30;;;;;;5092911;28;20107;-66
2021/09/22 06:09:14;;;;;;;23.08;17.02;;;15.40;67.20;;;;;;5073522;28;20038;-66
2021/09/22 06:11:40;;;;;;;18.02;15.25;;;15.40;67.30;;;;;;5074395;28;20031;-67
2021/09/22 06:14:06;;;;;;;21.45;16.10;;;15.40;67.30;;;;;;5075238;28;20020;-65
2021/09/22 06:16:32;;;;;;;22.30;16.55;;;15.30;67.50;;;;;;5074513;28;20028;-66
2021/09/22 06:21:42;;;;;;;21.88;16.42;;;15.30;68.50;;;;;;5092548;28;20125;-64
2021/09/22 06:24:08;;;;;;;18.75;16.63;;;15.20;70.00;;;;;;5074981;28;20036;-64
2021/09/22 06:26:34;;;;;;;21.40;16.30;;;15.00;71.00;;;;;;5073162;28;20299;-65
2021/09/22 06:28:59;;;;;;;21.52;18.23;;;14.90;72.70;;;;;;5074884;28;20059;-66
2021/09/22 06:31:25;;;;;;;18.65;16.58;;;14.80;73.30;;;;;;5092154;28;20032;-70
2021/09/22 06:33:51;;;;;;;22.73;17.48;;;14.70;74.30;;;;;;5075653;28;20028;-68
2021/09/22 06:36:17;;;;;;;23.10;18.98;;;14.60;75.00;;;;;;5094541;28;20078;-70
2021/09/22 06:38:43;;;;;;;21.73;17.08;;;14.50;75.70;;;;;;5092742;28;20036;-69
2021/09/22 06:41:09;;;;;;;21.00;16.75;;;14.40;75.60;;;;;;5074093;28;20024;-67
2021/09/22 06:43:35;;;;;;;19.83;16.05;;;14.40;75.10;;;;;;5056622;28;20070;-68
2021/09/22 06:46:01;;;;;;;20.17;16.92;;;14.30;75.60;;;;;;5074274;28;20063;-67
2021/09/22 06:48:27;;;;;;;19.75;16.13;;;14.30;75.80;;;;;;5092081;28;20081;-65
2021/09/22 06:50:52;;;;;;;21.38;16.35;;;14.30;75.60;;;;;;5092929;28;20500;-66
2021/09/22 06:53:18;;;;;;;18.30;16.00;;;14.30;76.00;;;;;;5074115;28;20119;-65
2021/09/22 06:55:44;;;;;;;22.30;16.23;;;14.30;76.00;;;;;;5091448;28;20062;-65
2021/09/22 06:58:10;;;;;;;19.60;15.70;;;14.40;76.10;;;;;;5092775;28;20474;-66
2021/09/22 07:00:36;;;;;;;29.02;17.80;;;14.40;75.80;;;;;;5091511;28;20394;-65
2021/09/22 07:03:05;;;;;;;21.05;16.58;;;14.30;76.10;;;;;;5092212;28;20156;-64
2021/09/22 07:05:31;;;;;;;18.25;15.93;;;14.30;76.20;;;;;;5072968;28;20092;-66
2021/09/22 07:07:57;;;;;;;19.35;13.80;;;14.30;76.10;;;;;;5073644;28;20119;-65
2021/09/22 07:10:23;;;;;;;21.73;16.05;;;14.30;76.10;;;;;;5074723;28;20107;-64
2021/09/22 07:12:50;;;;;;;18.73;14.98;;;14.30;76.20;;;;;;5074307;28;20031;-66
2021/09/22 07:15:16;;;;;;;16.00;13.93;;;14.30;76.00;;;;;;5092366;28;20035;-65
2021/09/22 07:17:42;;;;;;;19.73;13.02;;;14.30;76.10;;;;;;5092078;28;20032;-65
2021/09/22 07:20:09;;;;;;;14.57;13.07;;;14.40;76.30;;;;;;5091413;28;20050;-66
2021/09/22 07:22:35;;;;;;;16.10;14.15;;;14.40;76.50;;;;;;5072018;28;20032;-63
2021/09/22 07:25:01;;;;;;;14.10;12.00;;;14.40;76.20;;;;;;5091954;28;20035;-65
2021/09/22 07:27:28;;;;;;;15.00;13.40;;;14.40;76.00;;;;;;5073371;28;20378;-65
2021/09/22 07:29:55;;;;;;;14.38;12.82;;;14.50;75.60;;;;;;5071745;28;20256;-68
2021/09/22 07:32:20;;;;;;;15.40;12.38;;;14.50;75.50;;;;;;5091533;28;20031;-64
2021/09/22 07:34:46;;;;;;;17.90;11.80;;;14.50;75.80;;;;;;5073171;28;20480;-63
2021/09/22 07:37:12;;;;;;;18.75;11.82;;;14.60;75.90;;;;;;5090934;28;20055;-66
2021/09/22 07:39:40;;;;;;;14.38;11.70;;;14.60;76.10;;;;;;5091365;28;20089;-66
2021/09/22 07:42:11;;;;;;;13.95;11.20;;;14.60;75.90;;;;;;5091414;28;20054;-65
2021/09/22 07:44:38;;;;;;;14.88;10.05;;;14.60;75.70;;;;;;5073163;28;20036;-65
2021/09/22 07:47:04;;;;;;;18.55;10.52;;;14.60;76.10;;;;;;5073480;28;20453;-66
2021/09/22 07:49:29;;;;;;;10.50;8.25;;;14.60;75.80;;;;;;5091521;28;20028;-67
2021/09/22 07:51:55;;;;;;;14.25;9.35;;;14.60;75.50;;;;;;5091788;28;20441;-66
2021/09/22 07:54:21;;;;;;;11.50;7.93;;;14.60;75.40;;;;;;5073516;28;20026;-66
2021/09/22 07:56:47;;;;;;;9.13;7.72;;;14.70;75.20;;;;;;5071979;28;20350;-67
2021/09/22 07:59:14;;;;;;;11.05;7.88;;;14.70;74.60;;;;;;5090312;28;20469;-67
2021/09/22 08:01:58;;;;;;;8.68;6.53;;;14.70;74.40;;;;;;5072130;28;20047;-68
2021/09/22 08:04:24;;;;;;;8.60;6.07;;;14.70;73.90;;;;;;5091552;28;20036;-65
2021/09/22 08:06:51;;;;;;;7.85;5.65;;;14.70;73.90;;;;;;5073095;28;20094;-68
2021/09/22 08:09:17;;;;;;;8.30;5.97;;;14.70;73.80;;;;;;5091327;28;20031;-65
2021/09/22 08:11:44;;;;;;;7.03;5.63;;;14.80;73.60;;;;;;5090622;28;20024;-64
2021/09/22 08:14:09;;;;;;;8.30;5.75;;;14.90;73.40;;;;;;5091322;28;20061;-65
2021/09/22 08:16:36;;;;;;;8.40;7.28;;;15.00;73.30;;;;;;5072499;28;20116;-67
2021/09/22 08:19:01;;;;;;;9.20;6.45;;;15.10;73.10;;;;;;5072104;28;20031;-66
2021/09/22 08:21:27;;;;;;;9.18;7.60;;;15.20;72.70;;;;;;5091369;28;20032;-66
2021/09/22 08:23:53;;;;;;;12.48;7.38;;;15.20;72.50;;;;;;5090920;28;20453;-65
2021/09/22 08:26:18;;;;;;;11.90;7.40;;;15.20;72.20;;;;;;5087560;28;20123;-64
2021/09/22 08:28:45;;;;;;;12.20;7.75;;;15.20;72.20;;;;;;5052104;28;20500;-65
2021/09/22 08:31:10;;;;;;;9.27;6.90;;;15.30;72.40;;;;;;5052861;28;20052;-66
2021/09/22 08:33:36;;;;;;;10.65;7.30;;;15.40;71.80;;;;;;5069829;28;20024;-65
2021/09/22 08:36:02;;;;;;;12.95;7.20;;;15.30;71.20;;;;;;5052859;28;20021;-66
2021/09/22 08:38:28;;;;;;;11.05;6.95;;;15.30;71.20;;;;;;5070651;28;20024;-66
2021/09/22 08:40:54;;;;;;;9.57;7.15;;;15.20;71.50;;;;;;5035773;28;20035;-67
2021/09/22 08:43:24;;;;;;;13.60;8.32;;;15.30;71.70;;;;;;5052660;28;20115;-66
2021/09/22 08:45:51;;;;;;;11.07;7.55;;;15.40;71.60;;;;;;5070106;28;20047;-67
2021/09/22 08:48:17;;;;;;;9.02;7.90;;;15.60;71.10;;;;;;5070543;28;20028;-65
2021/09/22 08:50:43;;;;;;;10.48;8.10;;;15.60;70.50;;;;;;5035284;28;20077;-65
2021/09/22 08:53:08;;;;;;;13.35;7.97;;;15.80;70.30;;;;;;5070318;28;20028;-65
2021/09/22 08:55:34;;;;;;;9.60;7.80;;;15.90;69.60;;;;;;5070153;28;20033;-67
2021/09/22 08:58:00;;;;;;;14.50;8.18;;;16.00;69.40;;;;;;5070409;28;20028;-67
2021/09/22 09:00:26;;;;;;;10.23;7.85;;;16.10;68.90;;;;;;5052455;28;20025;-67
2021/09/22 09:02:53;;;;;;;10.23;8.25;;;16.40;68.40;;;;;;5034955;28;20040;-65
2021/09/22 09:05:20;;;;;;;10.45;8.18;;;16.50;67.20;;;;;;5070599;28;20025;-65
2021/09/22 09:07:57;;;;;;;10.52;8.45;;;16.60;66.80;;;;;;5069428;28;20036;-66
2021/09/22 09:13:12;;;;;;;11.63;8.23;;;17.00;65.70;;;;;;5070082;28;20035;-66
2021/09/22 09:15:40;;;;;;;13.98;9.80;;;17.00;65.30;;;;;;5069993;28;20068;-66
2021/09/22 09:18:20;;;;;;;11.77;8.80;;;17.20;65.50;;;;;;5051983;28;20044;-66
2021/09/22 09:20:51;;;;;;;11.85;8.13;;;17.60;65.00;;;;;;5069995;28;20070;-66
2021/09/22 09:23:19;;;;;;;11.73;7.28;;;17.70;63.30;;;;;;5053850;28;20028;-67
2021/09/22 09:26:00;;;;;;;10.45;7.68;;;17.60;63.20;;;;;;5073741;28;20035;-68
2021/09/22 09:28:28;;;;;;;12.43;8.25;;;17.40;63.50;;;;;;5075785;28;20062;-68
2021/09/22 09:31:06;;;;;;;12.55;8.30;;;17.30;64.00;;;;;;5093465;28;20034;-68
2021/09/22 09:33:37;;;;;;;31.85;8.40;;;17.10;64.30;;;;;;5093522;28;20488;-66
2021/09/22 09:36:25;;;;;;;12.95;7.97;;;16.90;65.00;;;;;;5076073;28;20028;-67
2021/09/22 09:39:07;;;;;;;15.75;8.50;;;17.00;65.30;;;;;;5075164;28;20031;-68
2021/09/22 09:41:53;;;;;;;14.60;7.88;;;17.00;65.20;;;;;;5093501;28;20028;-69
2021/09/22 09:44:23;;;;;;;10.98;6.82;;;17.30;64.90;;;;;;5094081;28;20028;-66
2021/09/22 09:46:52;;;;;;;12.35;8.00;;;17.60;64.20;;;;;;5093709;28;20026;-67
2021/09/22 09:49:21;;;;;;;13.63;6.97;;;17.90;63.00;;;;;;5094064;28;20024;-66
2021/09/22 09:51:56;;;;;;;14.93;7.03;;;17.90;61.50;;;;;;5074811;28;20208;-65
2021/09/22 09:54:24;;;;;;;13.48;6.95;;;18.20;61.60;;;;;;5073945;28;20031;-66
2021/09/22 09:56:55;;;;;;;13.45;7.45;;;18.30;60.70;;;;;;5074258;28;20273;-67
2021/09/22 09:59:23;;;;;;;14.30;7.13;;;18.40;60.00;;;;;;5093461;28;20035;-68
2021/09/22 10:01:52;;;;;;;14.88;6.85;;;18.50;59.40;;;;;;5092646;28;20028;-66
2021/09/22 10:04:20;;;;;;;16.55;7.13;;;18.70;59.30;;;;;;5073858;28;20094;-66
2021/09/22 10:06:47;;;;;;;11.30;7.97;;;18.80;58.70;;;;;;5073407;28;20024;-68
2021/09/22 10:09:13;;;;;;;10.77;7.18;;;19.10;58.30;;;;;;5092923;28;20033;-67
2021/09/22 10:11:41;;;;;;;12.45;7.70;;;19.20;57.40;;;;;;5073873;28;20389;-67
2021/09/22 10:14:09;;;;;;;14.50;8.02;;;19.10;57.30;;;;;;5093045;28;20020;-68
2021/09/22 10:16:36;;;;;;;13.00;7.93;;;19.00;57.60;;;;;;5073895;28;20046;-66
2021/09/22 10:19:08;;;;;;;10.80;7.72;;;18.80;58.20;;;;;;5093060;28;20115;-67
2021/09/22 10:21:37;;;;;;;13.18;8.18;;;18.80;58.40;;;;;;5073423;28;20085;-65
2021/09/22 10:24:15;;;;;;;24.63;8.57;;;18.90;58.40;;;;;;5092034;28;20119;-68
2021/09/22 10:26:52;;;;;;;13.55;8.48;;;19.10;57.90;;;;;;5086002;28;20084;-67
2021/09/22 10:29:27;;;;;;;18.27;8.50;;;19.30;57.60;;;;;;5053682;28;20028;-67
2021/09/22 10:31:56;;;;;;;11.60;9.00;;;19.50;57.20;;;;;;5053225;28;20114;-67
2021/09/22 10:34:36;;;;;;;13.55;9.20;;;19.50;57.10;;;;;;5052633;28;20245;-66
2021/09/22 10:37:05;;;;;;;15.43;9.45;;;19.50;56.70;;;;;;5037602;28;20028;-67
2021/09/22 10:39:34;;;;;;;19.25;12.85;;;19.30;57.10;;;;;;5053858;28;20033;-68
2021/09/22 10:42:00;;;;;;;14.90;10.52;;;19.20;57.80;;;;;;5054190;28;20078;-68
2021/09/22 10:44:38;;;;;;;14.15;10.50;;;19.20;57.70;;;;;;5054251;28;20440;-69
2021/09/22 10:47:43;;;;;;;13.90;9.60;;;19.20;57.40;;;;;;5053933;28;20056;-71
2021/09/22 10:50:13;;;;;;;;;;;19.40;56.80;;;;;;5013743;28;20030;-71
2021/09/22 10:52:41;;;;;;;13.98;9.25;;;19.40;56.50;;;;;;5012734;28;19905;-70
2021/09/22 10:55:17;;;;;;;13.93;8.88;;;19.10;56.90;;;;;;5013470;28;20030;-69
2021/09/22 10:57:46;;;;;;;11.35;8.70;;;18.80;57.40;;;;;;5012481;28;20501;-69
2021/09/22 11:00:16;;;;;;;13.20;8.60;;;18.50;58.30;;;;;;5012554;28;20030;-68
2021/09/22 11:02:49;;;;;;;14.40;9.55;;;18.20;59.00;;;;;;5012583;28;20579;-68
2021/09/22 11:05:52;;;;;;;12.73;9.53;;;18.10;59.70;;;;;;5013000;28;20053;-65
2021/09/22 11:08:33;;;;;;;15.70;7.85;;;17.90;60.80;;;;;;5029020;28;20280;-64
2021/09/22 11:10:59;;;;;;;11.00;7.25;;;17.70;60.90;;;;;;5028800;28;20085;-67
2021/09/22 11:13:31;;;;;;;16.05;8.45;;;17.60;61.20;;;;;;5029107;28;20040;-68
2021/09/22 11:16:13;;;;;;;12.73;7.18;;;17.50;61.20;;;;;;5012680;28;20021;-69
2021/09/22 11:18:46;;;;;;;9.95;7.07;;;17.40;62.10;;;;;;5028473;28;20033;-64
2021/09/22 11:21:12;;;;;;;9.98;7.00;;;17.30;62.70;;;;;;5037147;28;20477;-65
2021/09/22 11:23:41;;;;;;;14.25;6.78;;;17.30;62.50;;;;;;5052883;28;20032;-65
2021/09/22 11:26:11;;;;;;;10.43;6.97;;;17.40;62.50;;;;;;5071056;28;20036;-66
2021/09/22 11:28:45;;;;;;;10.35;7.13;;;17.40;62.80;;;;;;5052343;28;20039;-66
2021/09/22 11:31:15;;;;;;;10.55;6.28;;;17.70;62.30;;;;;;5052934;28;20033;-67
2021/09/22 11:33:42;;;;;;;10.05;6.82;;;17.80;61.60;;;;;;5052792;28;20100;-67
2021/09/22 11:36:27;;;;;;;11.82;6.70;;;17.90;61.30;;;;;;5070960;28;20036;-68
2021/09/22 11:38:54;;;;;;;17.92;6.88;;;18.00;61.20;;;;;;5052313;28;20323;-65
2021/09/22 11:41:20;;;;;;;20.00;7.22;;;18.10;60.80;;;;;;5052177;28;20037;-68
2021/09/22 11:43:46;;;;;;;14.93;7.18;;;18.10;60.40;;;;;;5051900;28;20086;-67
2021/09/22 11:46:12;;;;;;;12.10;5.82;;;18.20;60.40;;;;;;5070244;28;20107;-67
2021/09/22 11:48:40;;;;;;;8.55;6.25;;;18.20;60.20;;;;;;5069682;28;20025;-66
2021/09/22 11:51:11;;;;;;;13.35;6.45;;;18.30;60.00;;;;;;5051970;28;20048;-66
2021/09/22 11:53:46;;;;;;;12.93;6.65;;;18.20;59.60;;;;;;5069600;28;20504;-66
2021/09/22 11:56:14;;;;;;;12.27;6.53;;;18.30;59.50;;;;;;5070607;28;20032;-64
2021/09/22 11:58:42;;;;;;;15.63;6.57;;;18.40;59.50;;;;;;5051600;28;20488;-63
2021/09/22 12:01:08;;;;;;;16.42;6.75;;;18.50;58.90;;;;;;5070683;28;20063;-63
2021/09/22 12:03:37;;;;;;;11.82;6.50;;;18.60;58.70;;;;;;5050002;28;20117;-64
2021/09/22 12:06:15;;;;;;;18.02;7.47;;;18.70;58.40;;;;;;5070215;28;20028;-68
2021/09/22 12:08:43;;;;;;;16.67;7.18;;;18.90;58.20;;;;;;5070099;28;20077;-63
2021/09/22 12:11:13;;;;;;;13.88;6.65;;;18.70;58.60;;;;;;5069578;28;20032;-63
2021/09/22 12:13:46;;;;;;;17.83;6.75;;;18.60;58.70;;;;;;5050939;28;20036;-64
2021/09/22 12:16:29;;;;;;;11.50;7.85;;;18.50;59.80;;;;;;5052560;28;20484;-64
2021/09/22 12:18:59;;;;;;;17.25;8.52;;;18.20;60.90;;;;;;5070304;28;20173;-63
2021/09/22 12:21:27;;;;;;;20.55;8.52;;;17.90;62.30;;;;;;5052523;28;20043;-63
2021/09/22 12:23:54;;;;;;;18.25;9.93;;;17.80;62.70;;;;;;5070084;28;20491;-61
2021/09/22 12:26:20;;;;;;;20.13;9.57;;;17.70;62.90;;;;;;5070443;28;20040;-62
2021/09/22 12:29:07;;;;;;;20.30;9.70;;;17.70;63.00;;;;;;5052696;28;20024;-63
2021/09/22 12:31:41;;;;;;;13.23;8.65;;;17.70;64.00;;;;;;5071055;28;20028;-62
2021/09/22 12:34:17;;;;;;;;;;;17.60;65.00;;;;;;5053600;28;20105;-62
2021/09/22 12:36:44;;;;;;;16.45;9.50;;;17.50;65.90;;;;;;5051761;28;19958;-58
2021/09/22 12:39:15;;;;;;;17.33;10.73;;;17.40;66.40;;;;;;5070447;28;20054;-59
2021/09/22 12:42:00;;;;;;;16.67;10.88;;;17.40;66.70;;;;;;5052037;28;20044;-62
2021/09/22 12:44:28;;;;;;;13.48;9.98;;;17.30;68.10;;;;;;5068022;28;20187;-61